createdAt,value
2022-08-03T00:01:24.205Z,70.05
2022-08-03T00:03:53.211Z,70.54
2022-08-03T00:06:22.181Z,70.34
2022-08-03T00:08:51.292Z,70.74
2022-08-03T00:11:20.685Z,70.33
2022-08-03T00:13:49.791Z,70.38
2022-08-03T00:16:21.449Z,70.40
2022-08-03T00:18:52.377Z,70.19
2022-08-03T00:21:21.566Z,71.04
2022-08-03T00:23:51.498Z,70.22
2022-08-03T00:26:22.072Z,70.64
2022-08-03T00:28:51.954Z,70.01
2022-08-03T00:31:35.227Z,69.68
2022-08-03T00:34:12.512Z,69.82
2022-08-03T00:36:41.898Z,69.45
2022-08-03T00:39:11.148Z,69.28
2022-08-03T00:41:40.400Z,70.35
2022-08-03T00:44:09.382Z,70.89
2022-08-03T00:46:39.703Z,70.42
2022-08-03T00:49:09.011Z,70.37
2022-08-03T00:51:37.956Z,71.35
2022-08-03T00:54:06.980Z,70.59
2022-08-03T00:56:37.072Z,70.96
2022-08-03T00:59:06.496Z,71.12
2022-08-03T01:01:35.392Z,70.91
2022-08-03T01:04:06.614Z,71.58
2022-08-03T01:06:44.448Z,72.09
2022-08-03T01:09:21.024Z,71.50
2022-08-03T01:12:00.631Z,71.85
2022-08-03T01:14:39.905Z,71.45
2022-08-03T01:17:16.445Z,71.03
2022-08-03T01:19:55.288Z,70.62
2022-08-03T01:23:00.963Z,70.66
2022-08-03T01:25:45.685Z,70.61
2022-08-03T01:28:34.697Z,69.98
2022-08-03T01:31:08.656Z,70.38
2022-08-03T01:33:41.757Z,70.24
2022-08-03T01:36:14.983Z,70.13
2022-08-03T01:38:48.148Z,69.42
2022-08-03T01:41:22.598Z,70.87
2022-08-03T01:44:26.828Z,70.93
2022-08-03T01:46:49.297Z,70.52
2022-08-03T01:49:19.227Z,70.13
2022-08-03T01:52:03.179Z,69.58
2022-08-03T01:54:37.200Z,69.73
2022-08-03T01:57:07.801Z,70.08
2022-08-03T01:59:40.089Z,70.16
2022-08-03T02:02:32.097Z,70.99
2022-08-03T02:05:05.761Z,70.58
2022-08-03T02:07:43.079Z,70.68
2022-08-03T02:10:16.065Z,69.93
2022-08-03T02:13:06.535Z,69.88
2022-08-03T02:15:37.403Z,71.01
2022-08-03T02:18:10.939Z,69.65
2022-08-03T02:20:41.590Z,69.80
2022-08-03T02:23:11.482Z,70.00
2022-08-03T02:25:45.773Z,69.85
2022-08-03T02:28:21.713Z,70.03
2022-08-03T02:30:55.729Z,70.72
2022-08-03T02:33:33.173Z,71.21
2022-08-03T02:36:04.053Z,71.01
2022-08-03T02:38:38.174Z,71.08
2022-08-03T02:41:14.720Z,70.20
2022-08-03T02:44:06.056Z,70.09
2022-08-03T02:46:38.798Z,70.02
2022-08-03T02:49:41.062Z,69.73
2022-08-03T02:52:02.926Z,69.76
2022-08-03T02:54:34.294Z,69.32
2022-08-03T02:57:04.382Z,69.38
2022-08-03T02:59:35.038Z,69.14
2022-08-03T03:02:04.838Z,69.12
2022-08-03T03:04:36.560Z,69.45
2022-08-03T03:07:06.320Z,68.97
2022-08-03T03:09:41.610Z,69.38
2022-08-03T03:13:37.250Z,68.96
2022-08-03T03:16:11.474Z,68.99
2022-08-03T03:18:40.970Z,68.73
2022-08-03T03:21:12.439Z,68.84
2022-08-03T03:23:42.702Z,69.34
2022-08-03T03:26:14.449Z,69.37
2022-08-03T03:28:44.108Z,70.00
2022-08-03T03:31:13.755Z,69.45
2022-08-03T03:33:42.767Z,70.01
2022-08-03T03:36:13.725Z,69.55
2022-08-03T03:38:43.389Z,69.93
2022-08-03T03:41:12.919Z,69.17
2022-08-03T03:43:42.477Z,69.06
2022-08-03T03:46:14.413Z,68.99
2022-08-03T03:48:43.796Z,68.80
2022-08-03T03:51:15.022Z,68.67
2022-08-03T03:53:57.341Z,68.74
2022-08-03T03:56:26.867Z,68.39
2022-08-03T03:58:56.357Z,68.43
2022-08-03T04:01:25.805Z,68.09
2022-08-03T04:03:55.067Z,68.02
2022-08-03T04:06:43.062Z,67.79
2022-08-03T04:09:30.600Z,67.48
2022-08-03T04:12:02.957Z,67.06
2022-08-03T04:14:36.321Z,66.99
2022-08-03T04:17:08.455Z,66.47
2022-08-03T04:19:41.780Z,66.89
2022-08-03T04:22:15.628Z,67.56
2022-08-03T04:24:48.495Z,67.20
2022-08-03T04:27:22.257Z,67.03
2022-08-03T04:29:54.284Z,67.34
2022-08-03T04:32:28.645Z,67.30
2022-08-03T04:34:58.407Z,67.89
2022-08-03T04:37:39.426Z,67.47
2022-08-03T04:40:14.474Z,66.92
2022-08-03T04:42:45.904Z,67.36
2022-08-03T04:45:17.736Z,67.54
2022-08-03T04:47:47.402Z,67.39
2022-08-03T04:50:21.587Z,66.52
2022-08-03T04:53:07.715Z,67.04
2022-08-03T04:55:37.691Z,66.90
2022-08-03T04:58:07.452Z,66.38
2022-08-03T05:00:36.456Z,65.41
2022-08-03T05:03:20.245Z,65.29
2022-08-03T05:06:09.491Z,64.16
2022-08-03T05:08:46.852Z,64.94
2022-08-03T05:11:17.001Z,64.05
2022-08-03T05:13:46.759Z,62.74
2022-08-03T05:16:16.253Z,62.56
2022-08-03T05:18:46.105Z,62.86
2022-08-03T05:21:16.995Z,61.68
2022-08-03T05:23:47.432Z,60.77
2022-08-03T05:26:16.888Z,60.30
2022-08-03T05:28:51.119Z,59.31
2022-08-03T05:31:21.142Z,58.85
2022-08-03T05:33:50.352Z,59.48
2022-08-03T05:36:19.225Z,60.01
2022-08-03T05:38:49.956Z,60.06
2022-08-03T05:41:21.432Z,59.62
2022-08-03T05:43:53.867Z,59.31
2022-08-03T05:46:23.899Z,60.20
2022-08-03T05:48:52.911Z,60.88
2022-08-03T05:51:22.188Z,59.92
2022-08-03T05:53:52.603Z,60.71
2022-08-03T05:56:25.273Z,59.46
2022-08-03T05:58:54.708Z,59.62
2022-08-03T06:01:24.191Z,60.14
2022-08-03T06:03:53.779Z,58.88
2022-08-03T06:06:23.106Z,58.00
2022-08-03T06:08:54.563Z,57.97
2022-08-03T06:11:23.525Z,58.14
2022-08-03T06:13:52.612Z,55.98
2022-08-03T06:16:21.625Z,55.68
2022-08-03T06:18:50.844Z,55.62
2022-08-03T06:21:20.152Z,55.00
2022-08-03T06:23:55.503Z,54.50
2022-08-03T06:26:29.283Z,53.98
2022-08-03T06:28:58.305Z,52.17
2022-08-03T06:31:33.316Z,54.96
2022-08-03T06:34:33.639Z,54.16
2022-08-03T06:37:01.693Z,52.47
2022-08-03T06:39:32.724Z,52.36
2022-08-03T06:42:02.060Z,52.29
2022-08-03T06:44:31.326Z,51.30
2022-08-03T06:47:00.217Z,51.06
2022-08-03T06:49:29.479Z,49.84
2022-08-03T06:52:03.631Z,50.59
2022-08-03T06:54:38.175Z,49.47
2022-08-03T06:57:08.390Z,50.07
2022-08-03T07:00:10.365Z,50.38
2022-08-03T07:02:28.377Z,50.30
2022-08-03T07:04:58.497Z,49.15
2022-08-03T07:07:27.450Z,49.17
2022-08-03T07:09:58.388Z,48.64
2022-08-03T07:12:29.617Z,47.71
2022-08-03T07:15:02.119Z,48.08
2022-08-03T07:17:37.246Z,46.68
2022-08-03T07:20:08.962Z,47.49
2022-08-03T07:22:38.978Z,46.42
2022-08-03T07:25:10.547Z,45.92
2022-08-03T07:27:39.924Z,46.05
2022-08-03T07:30:10.444Z,46.62
2022-08-03T07:32:50.458Z,46.76
2022-08-03T07:35:24.845Z,46.38
2022-08-03T07:37:55.250Z,45.58
2022-08-03T07:40:31.484Z,46.10
2022-08-03T07:43:02.306Z,45.45
2022-08-03T07:45:31.838Z,45.69
2022-08-03T07:48:01.330Z,45.73
2022-08-03T07:50:30.586Z,45.87
2022-08-03T07:52:59.875Z,45.60
2022-08-03T07:55:30.893Z,45.41
2022-08-03T07:58:05.000Z,45.04
2022-08-03T08:00:34.813Z,45.89
2022-08-03T08:03:04.097Z,44.33
2022-08-03T08:05:33.910Z,43.98
2022-08-03T08:08:03.390Z,44.45
2022-08-03T08:10:35.433Z,42.30
2022-08-03T08:13:05.459Z,42.92
2022-08-03T08:15:34.831Z,42.00
2022-08-03T08:18:04.629Z,40.94
2022-08-03T08:20:37.930Z,40.68
2022-08-03T08:23:37.893Z,41.21
2022-08-03T08:25:59.684Z,40.23
2022-08-03T08:28:32.899Z,40.48
2022-08-03T08:31:03.426Z,41.26
2022-08-03T08:34:02.696Z,41.43
2022-08-03T08:36:24.204Z,40.69
2022-08-03T08:38:53.582Z,40.23
2022-08-03T08:41:24.065Z,39.20
2022-08-03T08:44:01.606Z,36.72
2022-08-03T08:46:33.888Z,35.10
2022-08-03T08:49:04.790Z,34.72
2022-08-03T08:51:51.040Z,36.62
2022-08-03T08:54:28.515Z,35.65
2022-08-03T08:57:03.171Z,35.18
2022-08-03T08:59:48.360Z,35.03
2022-08-03T09:02:19.302Z,34.58
2022-08-03T09:04:49.419Z,34.49
2022-08-03T09:07:20.453Z,34.41
2022-08-03T09:10:12.013Z,33.71
2022-08-03T09:12:43.414Z,34.50
2022-08-03T09:15:21.330Z,34.38
2022-08-03T09:17:54.935Z,34.54
2022-08-03T09:20:26.731Z,35.47
2022-08-03T09:22:59.114Z,33.95
2022-08-03T09:25:30.506Z,34.15
2022-08-03T09:28:10.358Z,33.97
2022-08-03T09:30:41.702Z,33.85
2022-08-03T09:33:12.373Z,34.31
2022-08-03T09:35:54.881Z,33.19
2022-08-03T09:38:27.772Z,33.08
2022-08-03T09:41:00.796Z,32.33
2022-08-03T09:43:47.928Z,32.67
2022-08-03T09:46:17.468Z,32.27
2022-08-03T09:48:46.683Z,33.16
2022-08-03T09:51:32.882Z,32.68
2022-08-03T09:54:05.578Z,32.66
2022-08-03T09:56:41.812Z,32.68
2022-08-03T09:59:14.525Z,32.69
2022-08-03T10:01:44.056Z,33.13
2022-08-03T10:04:18.130Z,33.22
2022-08-03T10:07:03.911Z,32.93
2022-08-03T10:09:33.354Z,31.80
2022-08-03T10:12:10.442Z,30.80
2022-08-03T10:14:45.473Z,31.37
2022-08-03T10:17:15.304Z,31.33
2022-08-03T10:19:44.699Z,29.75
2022-08-03T10:22:16.615Z,29.17
2022-08-03T10:24:56.967Z,28.69
2022-08-03T10:27:28.061Z,28.93
2022-08-03T10:30:03.202Z,27.35
2022-08-03T10:32:35.530Z,25.07
2022-08-03T10:35:20.012Z,26.19
2022-08-03T10:37:58.682Z,25.83
2022-08-03T10:40:47.979Z,25.74
2022-08-03T10:43:22.961Z,25.34
2022-08-03T10:45:54.439Z,22.40
2022-08-03T10:48:24.487Z,24.01
2022-08-03T10:50:54.838Z,22.94
2022-08-03T10:53:37.517Z,23.55
2022-08-03T10:56:26.626Z,24.19
2022-08-03T10:59:22.948Z,21.41
2022-08-03T11:02:00.541Z,23.54
2022-08-03T11:04:31.155Z,22.72
2022-08-03T11:07:23.264Z,20.82
2022-08-03T11:09:54.046Z,21.89
2022-08-03T11:12:29.851Z,22.23
2022-08-03T11:15:03.306Z,21.77
2022-08-03T11:18:12.311Z,22.33
2022-08-03T11:20:49.529Z,22.30
2022-08-03T11:24:02.910Z,20.65
2022-08-03T11:26:17.476Z,20.04
2022-08-03T11:28:48.934Z,18.26
2022-08-03T11:31:50.118Z,18.12
2022-08-03T11:34:21.318Z,18.82
2022-08-03T11:37:20.881Z,16.58
2022-08-03T11:39:57.282Z,19.65
2022-08-03T11:42:48.535Z,20.22
2022-08-03T11:45:19.992Z,21.96
2022-08-03T11:47:55.105Z,19.27
2022-08-03T11:50:27.193Z,18.72
2022-08-03T11:52:57.384Z,19.54
2022-08-03T11:55:30.643Z,21.54
2022-08-03T11:59:01.609Z,18.04
2022-08-03T12:00:51.679Z,19.03
2022-08-03T12:03:22.350Z,15.57
2022-08-03T12:05:54.929Z,14.85
2022-08-03T12:08:35.328Z,15.67
2022-08-03T12:11:07.009Z,17.36
2022-08-03T12:14:45.856Z,16.28
2022-08-03T12:16:30.556Z,14.68
2022-08-03T12:19:01.673Z,12.91
2022-08-03T12:21:33.508Z,15.47
2022-08-03T12:24:04.536Z,13.41
2022-08-03T12:26:59.506Z,15.77
2022-08-03T12:29:29.632Z,16.54
2022-08-03T12:31:59.090Z,18.25
2022-08-03T12:34:47.452Z,20.80
2022-08-03T12:37:22.482Z,19.59
2022-08-03T12:40:02.648Z,15.85
2022-08-03T12:42:35.715Z,14.22
2022-08-03T12:45:20.034Z,15.49
2022-08-03T13:09:42.334Z,15.59
2022-08-03T13:12:13.612Z,15.23
2022-08-03T13:14:43.238Z,14.65
2022-08-03T13:17:12.369Z,16.04
2022-08-03T13:19:42.173Z,15.84
2022-08-03T13:22:15.683Z,16.48
2022-08-03T13:24:47.396Z,15.61
2022-08-03T13:27:58.911Z,15.03
2022-08-03T13:30:06.723Z,13.65
2022-08-03T13:32:37.179Z,15.59
2022-08-03T13:35:07.923Z,14.52
2022-08-03T13:37:38.951Z,15.89
2022-08-03T13:40:11.673Z,13.69
2022-08-03T13:42:41.051Z,13.97
2022-08-03T13:45:11.497Z,14.52
2022-08-03T13:47:40.572Z,17.16
2022-08-03T13:50:10.177Z,16.39
2022-08-03T13:52:42.047Z,14.93
2022-08-03T13:55:13.190Z,13.98
2022-08-03T13:58:02.295Z,15.40
2022-08-03T14:00:32.080Z,18.20
2022-08-03T14:03:07.976Z,18.19
2022-08-03T14:05:42.383Z,17.30
2022-08-03T14:08:12.390Z,13.93
2022-08-03T14:10:44.937Z,14.11
2022-08-03T14:13:17.447Z,12.67
2022-08-03T14:15:49.945Z,12.72
2022-08-03T14:18:28.691Z,13.28
2022-08-03T14:21:07.301Z,14.32
2022-08-03T14:23:38.589Z,15.57
2022-08-03T14:26:12.003Z,14.37
2022-08-03T14:28:43.075Z,17.57
2022-08-03T14:31:15.505Z,18.82
2022-08-03T14:34:01.549Z,19.42
2022-08-03T14:36:30.722Z,18.12
2022-08-03T14:39:01.583Z,16.42
2022-08-03T14:41:32.620Z,16.36
2022-08-03T14:44:02.562Z,16.22
2022-08-03T14:46:32.250Z,15.59
2022-08-03T14:50:29.294Z,16.66
2022-08-03T14:51:53.613Z,16.57
2022-08-03T14:54:23.877Z,16.34
2022-08-03T14:56:54.491Z,15.66
2022-08-03T14:59:23.528Z,15.70
2022-08-03T15:02:04.587Z,16.50
2022-08-03T15:04:36.786Z,15.58
2022-08-03T15:07:06.546Z,13.80
2022-08-03T15:09:35.581Z,12.88
2022-08-03T15:12:06.577Z,13.92
2022-08-03T15:14:36.170Z,13.50
2022-08-03T15:17:07.067Z,15.26
2022-08-03T15:20:03.088Z,14.51
2022-08-03T15:22:34.441Z,14.93
2022-08-03T15:26:03.894Z,15.43
2022-08-03T15:28:04.035Z,16.15
2022-08-03T15:30:37.215Z,16.49
2022-08-03T15:33:07.082Z,17.66
2022-08-03T15:35:36.328Z,16.63
2022-08-03T15:38:09.193Z,15.52
2022-08-03T15:40:39.600Z,16.08
2022-08-03T15:43:10.467Z,16.71
2022-08-03T15:45:41.943Z,17.10
2022-08-03T15:48:11.327Z,16.55
2022-08-03T15:50:40.939Z,17.42
2022-08-03T15:53:10.071Z,17.35
2022-08-03T15:55:40.706Z,17.91
2022-08-03T15:59:03.801Z,17.89
2022-08-03T16:01:02.196Z,18.62
2022-08-03T16:03:34.440Z,19.88
2022-08-03T16:06:04.810Z,19.50
2022-08-03T16:08:34.560Z,18.76
2022-08-03T16:11:03.551Z,19.25
2022-08-03T16:14:13.257Z,20.37
2022-08-03T16:16:23.436Z,19.24
2022-08-03T16:18:52.537Z,19.41
2022-08-03T16:21:21.895Z,19.72
2022-08-03T16:23:56.787Z,19.99
2022-08-03T16:26:25.946Z,19.92
2022-08-03T16:29:00.241Z,20.78
2022-08-03T16:31:31.555Z,21.36
2022-08-03T16:34:00.841Z,20.66
2022-08-03T16:36:34.749Z,20.54
2022-08-03T16:39:04.150Z,21.24
2022-08-03T16:41:54.455Z,21.76
2022-08-03T16:44:23.853Z,22.13
2022-08-03T16:46:55.892Z,22.40
2022-08-03T16:49:55.433Z,23.18
2022-08-03T16:52:14.380Z,23.16
2022-08-03T16:54:52.577Z,23.48
2022-08-03T16:57:56.116Z,25.02
2022-08-03T17:00:34.311Z,24.78
2022-08-03T17:03:12.770Z,25.65
2022-08-03T17:05:51.009Z,25.66
2022-08-03T17:08:26.482Z,26.35
2022-08-03T17:10:57.337Z,25.18
2022-08-03T17:13:27.696Z,25.43
2022-08-03T17:16:15.181Z,25.76
2022-08-03T17:18:50.081Z,25.97
2022-08-03T17:21:23.733Z,26.74
2022-08-03T17:23:59.016Z,27.14
2022-08-03T17:26:30.478Z,27.63
2022-08-03T17:29:11.257Z,28.09
2022-08-03T17:31:49.753Z,28.48
2022-08-03T17:34:20.038Z,28.40
2022-08-03T17:37:06.009Z,29.15
2022-08-03T17:39:57.762Z,29.10
2022-08-03T17:42:30.363Z,29.67
2022-08-03T17:45:03.627Z,30.18
2022-08-03T17:47:57.719Z,30.42
2022-08-03T17:50:40.371Z,30.65
2022-08-03T17:53:15.240Z,31.28
2022-08-03T17:56:36.166Z,31.29
2022-08-03T17:59:08.239Z,31.50
2022-08-03T18:02:15.269Z,31.89
2022-08-03T18:05:02.726Z,32.20
2022-08-03T18:07:49.635Z,33.21
2022-08-03T18:10:31.129Z,33.15
2022-08-03T18:13:10.504Z,33.19
2022-08-03T18:15:44.879Z,34.51
2022-08-03T18:18:29.229Z,34.65
2022-08-03T18:21:09.435Z,36.27
2022-08-03T18:26:39.576Z,37.98
2022-08-03T18:29:13.364Z,39.01
2022-08-03T18:34:35.254Z,37.38
2022-08-03T18:37:14.435Z,37.77
2022-08-03T18:39:50.179Z,38.03
2022-08-03T18:42:26.283Z,38.00
2022-08-03T18:44:57.084Z,39.31
2022-08-03T18:47:50.581Z,39.28
2022-08-03T18:50:31.916Z,39.42
2022-08-03T18:53:16.514Z,39.74
2022-08-03T18:56:02.228Z,39.37
2022-08-03T18:58:40.617Z,39.86
2022-08-03T19:02:00.976Z,39.68
2022-08-03T19:04:13.782Z,40.44
2022-08-03T19:06:45.947Z,40.20
2022-08-03T19:09:27.873Z,40.90
2022-08-03T19:12:12.526Z,41.14
2022-08-03T19:14:57.705Z,40.57
2022-08-03T19:17:31.804Z,40.77
2022-08-03T19:20:03.793Z,40.92
2022-08-03T19:22:36.901Z,41.00
2022-08-03T19:25:11.966Z,40.76
2022-08-03T19:27:45.525Z,41.49
2022-08-03T19:30:31.293Z,43.59
2022-08-03T19:33:02.149Z,43.84
2022-08-03T19:35:51.610Z,44.14
2022-08-03T19:38:28.755Z,45.50
2022-08-03T19:41:03.887Z,46.19
2022-08-03T19:46:31.731Z,48.00
2022-08-03T19:52:01.058Z,48.77
2022-08-03T19:54:45.508Z,51.16
2022-08-03T19:57:27.230Z,51.17
2022-08-03T19:59:57.930Z,49.44
2022-08-03T20:02:29.757Z,49.70
2022-08-03T20:05:00.518Z,50.78
2022-08-03T20:07:32.372Z,49.62
2022-08-03T20:10:02.989Z,51.47
2022-08-03T20:12:39.402Z,48.84
2022-08-03T20:15:11.495Z,51.12
2022-08-03T20:17:56.126Z,53.84
2022-08-03T20:20:29.443Z,49.73
2022-08-03T20:23:00.850Z,50.02
2022-08-03T20:25:38.041Z,52.28
2022-08-03T20:28:14.129Z,51.63
2022-08-03T20:30:47.476Z,52.55
2022-08-03T20:33:18.379Z,50.98
2022-08-03T20:35:49.936Z,55.36
2022-08-03T20:38:20.393Z,54.02
2022-08-03T20:40:59.200Z,54.30
2022-08-03T20:43:30.220Z,53.25
2022-08-03T20:46:31.802Z,54.42
2022-08-03T20:48:49.403Z,53.38
2022-08-03T20:51:20.194Z,55.18
2022-08-03T20:54:29.324Z,57.29
2022-08-03T20:57:04.182Z,54.78
2022-08-03T20:59:50.561Z,56.88
2022-08-03T21:02:29.882Z,56.05
2022-08-03T21:05:03.702Z,56.68
2022-08-03T21:10:33.606Z,57.35
2022-08-03T21:12:57.900Z,36.32
2022-08-03T21:13:04.405Z,38.88
2022-08-03T21:13:08.030Z,56.64
2022-08-03T21:13:08.996Z,49.53
2022-08-03T21:13:09.487Z,46.53
2022-08-03T21:16:13.135Z,57.33
2022-08-03T21:18:47.343Z,57.26
2022-08-03T21:21:19.605Z,58.27
2022-08-03T21:23:52.698Z,57.36
2022-08-03T21:26:23.997Z,57.82
2022-08-03T21:28:55.739Z,56.85
2022-08-03T21:31:27.787Z,56.66
2022-08-03T21:33:58.124Z,58.12
2022-08-03T21:36:29.354Z,58.96
2022-08-03T21:39:00.449Z,57.57
2022-08-03T21:41:32.397Z,59.07
2022-08-03T21:44:02.494Z,59.21
2022-08-03T21:46:37.906Z,59.40
2022-08-03T21:50:05.454Z,59.06
2022-08-03T21:52:04.051Z,59.18
2022-08-03T21:54:36.574Z,58.70
2022-08-03T21:57:09.867Z,59.20
2022-08-03T21:59:42.095Z,59.13
2022-08-03T22:02:22.508Z,59.95
2022-08-03T22:04:56.987Z,59.90
2022-08-03T22:07:29.811Z,59.51
2022-08-03T22:10:00.734Z,60.01
2022-08-03T22:12:32.071Z,60.37
2022-08-03T22:15:04.221Z,60.11
2022-08-03T22:17:55.936Z,60.70
2022-08-03T22:20:26.786Z,60.75
2022-08-03T22:23:00.402Z,60.97
2022-08-03T22:25:31.419Z,61.11
2022-08-03T22:28:03.323Z,60.80
2022-08-03T22:30:33.346Z,60.66
2022-08-03T22:33:11.078Z,60.93
2022-08-03T22:35:46.484Z,60.85
2022-08-03T22:38:18.804Z,61.27
2022-08-03T22:40:51.139Z,61.36
2022-08-03T22:43:24.306Z,62.30
2022-08-03T22:46:10.138Z,62.73
2022-08-03T22:48:45.572Z,61.83
2022-08-03T22:51:16.555Z,61.58
2022-08-03T22:53:47.313Z,62.31
2022-08-03T22:56:16.879Z,62.19
2022-08-03T22:58:46.258Z,62.51
2022-08-03T23:01:19.512Z,62.87
2022-08-03T23:04:02.233Z,62.70
2022-08-03T23:06:36.165Z,62.20
2022-08-03T23:09:10.141Z,62.83
2022-08-03T23:11:45.598Z,62.41
2022-08-03T23:14:17.310Z,62.57
2022-08-03T23:16:47.874Z,63.27
2022-08-03T23:19:25.036Z,62.72
2022-08-03T23:22:02.596Z,63.06
2022-08-03T23:24:36.953Z,62.88
2022-08-03T23:27:07.246Z,63.30
2022-08-03T23:29:37.676Z,63.07
2022-08-03T23:32:08.052Z,63.43
2022-08-03T23:34:58.711Z,63.59
2022-08-03T23:37:28.368Z,62.86
2022-08-03T23:39:59.616Z,62.81
2022-08-03T23:42:30.183Z,63.26
2022-08-03T23:45:06.145Z,63.42
2022-08-03T23:47:46.945Z,62.58
2022-08-03T23:50:18.583Z,63.12
2022-08-03T23:52:58.938Z,63.04
2022-08-03T23:55:42.335Z,62.42
2022-08-03T23:58:23.953Z,63.08
